»·PEaware :: SWA6323 KPHX-KBUR

SWA6323 :: KPHX-KBUR

FLIGHT INFORMATION

Flight Status: Arrived
Operator:
Southwest Airlines
More flights by this operator :: More flights under this callsign
Pilot: Ben L. (6391)
Aircraft: BOEING 737-800
(B738)
More flights by this aircraft type
Origin: KPHX Phoenix Sky Harbor Intl
United States
Destination: KBUR Bob Hope-Burbank
United States
More flights between these airports :: More routes between these airports
Route: +MAYSA5 JKPOT EED JANNY3
File this flight plan on PilotEdge
Remarks:
Altitude:
(Current/Filed)
34,000ft
Speed:
(Current/Filed)
450kts
Departed: 28-Sep-17 01:29 PM
Arrived: 28-Sep-17 02:38 PM
Distance/Time
Traveled:
320nm/1:09
Distance/Time
To Go:
Arrived

Flight Plot

Page will automatically refresh every two minutes.

Flight plan parsing failed; only flown route is shown


Map Options




Map Legend


Flown Route
Filed Route
Departure Airport
Arrival Airport
Navaid (VOR, NDB)
Fix

Horizontal Profiles

Position Reports

Time Latitude Longitude Heading Altitude Ground
Speed
28-Sep-17 12:58 33.434063 -111.998733 292 1117ft 0kts
28-Sep-17 12:59 33.434063 -111.998733 292 1117ft 0kts
28-Sep-17 13:00 33.434063 -111.998733 292 1117ft 0kts
28-Sep-17 13:01 33.434063 -111.998733 292 1117ft 0kts
28-Sep-17 13:02 33.434063 -111.998733 292 1117ft 0kts
28-Sep-17 13:03 33.434063 -111.998733 292 1117ft 0kts
28-Sep-17 13:04 33.434063 -111.998733 292 1117ft 0kts
28-Sep-17 13:05 33.434063 -111.998733 292 1117ft 0kts
28-Sep-17 13:06 33.434063 -111.998733 292 1117ft 0kts
28-Sep-17 13:07 33.434063 -111.998733 292 1117ft 0kts
28-Sep-17 13:08 33.434063 -111.998733 292 1117ft 0kts
28-Sep-17 13:09 33.434063 -111.998733 292 1117ft 0kts
28-Sep-17 13:10 33.434063 -111.998733 292 1117ft 0kts
28-Sep-17 13:11 33.434063 -111.998733 292 1117ft 0kts
28-Sep-17 13:12 33.434063 -111.998733 292 1117ft 0kts
28-Sep-17 13:13 33.434063 -111.998733 292 1117ft 0kts
28-Sep-17 13:14 33.434063 -111.998733 292 1117ft 0kts
28-Sep-17 13:15 33.434063 -111.998733 292 1117ft 0kts
28-Sep-17 13:16 33.434063 -111.998733 292 1117ft 0kts
28-Sep-17 13:17 33.434063 -111.998733 292 1117ft 0kts
28-Sep-17 13:18 33.434063 -111.998733 292 1117ft 0kts
28-Sep-17 13:19 33.434063 -111.998733 292 1117ft 0kts
28-Sep-17 13:20 33.434063 -111.998733 292 1117ft 0kts
28-Sep-17 13:21 33.434063 -111.998733 292 1117ft 0kts
28-Sep-17 13:22 33.434063 -111.998733 292 1117ft 0kts
28-Sep-17 13:23 33.433976 -111.998476 277 1117ft 9kts
28-Sep-17 13:24 33.434135 -111.998236 182 1117ft 0kts
28-Sep-17 13:25 33.434135 -111.998236 182 1117ft 0kts
28-Sep-17 13:26 33.433140 -111.998227 170 1117ft 7kts
28-Sep-17 13:27 33.432150 -112.002469 270 1117ft 26kts
28-Sep-17 13:28 33.432153 -112.012486 270 1117ft 32kts
28-Sep-17 13:29 33.432169 -112.019913 270 1117ft 17kts
28-Sep-17 13:30 33.432178 -112.026178 269 1117ft 11kts
28-Sep-17 13:31 33.431901 -112.027004 186 1117ft 0kts
28-Sep-17 13:32 33.431065 -112.025723 92 1117ft 23kts
28-Sep-17 13:33 33.430884 -111.983823 90 2045ft 181kts
28-Sep-17 13:34 33.433471 -111.920020 84 4040ft 216kts
28-Sep-17 13:35 33.464301 -111.851553 23 5317ft 279kts
28-Sep-17 13:36 33.542475 -111.846767 2 9299ft 286kts
28-Sep-17 13:37 33.628862 -111.839118 6 11838ft 347kts
28-Sep-17 13:38 33.711120 -111.850113 342 14745ft 369kts
28-Sep-17 13:39 33.786928 -111.937991 305 16296ft 388kts
28-Sep-17 13:40 33.850663 -112.042458 303 18154ft 406kts
28-Sep-17 13:41 33.917851 -112.153197 302 20160ft 418kts
28-Sep-17 13:42 33.985136 -112.264596 304 23118ft 397kts
28-Sep-17 13:43 34.055511 -112.361379 317 24996ft 398kts
28-Sep-17 13:44 34.137556 -112.444736 317 26379ft 405kts
28-Sep-17 13:45 34.224880 -112.533220 320 27475ft 417kts
28-Sep-17 13:46 34.313478 -112.622372 320 28637ft 425kts
28-Sep-17 13:47 34.399592 -112.709616 319 29662ft 431kts
28-Sep-17 13:48 34.491342 -112.802850 319 30634ft 439kts
28-Sep-17 13:49 34.585001 -112.898357 319 31527ft 446kts
28-Sep-17 13:50 34.679248 -112.994915 319 32436ft 450kts
28-Sep-17 13:51 34.737440 -113.124189 274 33031ft 458kts
28-Sep-17 13:52 34.739429 -113.278869 272 33742ft 463kts
28-Sep-17 13:53 34.743465 -113.434685 272 34123ft 475kts
28-Sep-17 13:54 34.747530 -113.595704 272 34107ft 493kts
28-Sep-17 13:55 34.751325 -113.754047 272 34107ft 505kts
28-Sep-17 13:56 34.755103 -113.920427 272 34103ft 508kts
28-Sep-17 13:57 34.758693 -114.089604 272 34046ft 509kts
28-Sep-17 13:58 34.762067 -114.259339 272 33920ft 510kts
28-Sep-17 13:59 34.765203 -114.428814 272 33919ft 509kts
28-Sep-17 14:00 34.768877 -114.598338 272 33964ft 509kts
28-Sep-17 14:01 34.772157 -114.747722 272 33969ft 509kts
28-Sep-17 14:02 34.775644 -114.915288 272 33967ft 509kts
28-Sep-17 14:03 34.778909 -115.084574 272 33966ft 509kts
28-Sep-17 14:04 34.781957 -115.254451 272 33966ft 509kts
28-Sep-17 14:05 34.784773 -115.424615 272 33965ft 509kts
28-Sep-17 14:06 34.787363 -115.595486 272 33960ft 504kts
28-Sep-17 14:07 34.789304 -115.738532 271 32676ft 460kts
28-Sep-17 14:08 34.791130 -115.858323 272 31450ft 446kts
28-Sep-17 14:09 34.793893 -116.005015 272 29972ft 438kts
28-Sep-17 14:10 34.796475 -116.150435 273 27684ft 426kts
28-Sep-17 14:11 34.796298 -116.290034 270 25185ft 412kts
28-Sep-17 14:12 34.791868 -116.425248 270 22946ft 397kts
28-Sep-17 14:13 34.787167 -116.557939 266 22018ft 397kts
28-Sep-17 14:14 34.775840 -116.676539 265 22020ft 398kts
28-Sep-17 14:15 34.764084 -116.797384 265 21356ft 382kts
28-Sep-17 14:16 34.751293 -116.926437 265 19904ft 389kts
28-Sep-17 14:17 34.738387 -117.053671 265 18408ft 382kts
28-Sep-17 14:18 34.725469 -117.179963 264 17388ft 371kts
28-Sep-17 14:19 34.713782 -117.293943 263 16447ft 361kts
28-Sep-17 14:20 34.701664 -117.410249 261 15471ft 357kts
28-Sep-17 14:21 34.689013 -117.529433 260 14476ft 360kts
28-Sep-17 14:22 34.675865 -117.651685 260 13969ft 397kts
28-Sep-17 14:23 34.663987 -117.763670 260 13957ft 398kts
28-Sep-17 14:24 34.649878 -117.895100 260 13918ft 399kts
28-Sep-17 14:25 34.635904 -118.021929 261 12288ft 369kts
28-Sep-17 14:26 34.615249 -118.135219 255 10511ft 347kts
28-Sep-17 14:27 34.593371 -118.234161 255 9215ft 283kts
28-Sep-17 14:28 34.574173 -118.320390 256 7998ft 247kts
28-Sep-17 14:29 34.556626 -118.398952 256 7985ft 244kts
28-Sep-17 14:30 34.518394 -118.462021 222 7545ft 240kts
28-Sep-17 14:31 34.469031 -118.515256 222 6491ft 239kts
28-Sep-17 14:32 34.420194 -118.567887 222 6106ft 238kts
28-Sep-17 14:33 34.370847 -118.620683 222 6042ft 248kts
28-Sep-17 14:34 34.314841 -118.654162 166 5596ft 238kts
28-Sep-17 14:35 34.279409 -118.602630 92 4580ft 230kts
28-Sep-17 14:36 34.281984 -118.535423 86 4005ft 189kts
28-Sep-17 14:37 34.290707 -118.477885 79 3117ft 156kts
28-Sep-17 14:38 34.295672 -118.428864 94 2686ft 142kts
28-Sep-17 14:39 34.282115 -118.385865 129 2666ft 136kts
28-Sep-17 14:40 34.247203 -118.369493 170 1864ft 143kts
28-Sep-17 14:41 34.209948 -118.359766 165 766ft 132kts
28-Sep-17 14:42 34.196229 -118.355293 81 738ft 3kts

Navigation Log

Ident Type
Flight plan parsing failed, navigation log unavailable